createdAt,value
2022-12-11T00:04:33.697Z,94.95
2022-12-11T00:14:38.051Z,94.82
2022-12-11T00:24:41.440Z,95.15
2022-12-11T00:34:46.189Z,95.42
2022-12-11T00:55:38.451Z,95.56
2022-12-11T01:05:53.694Z,95.54
2022-12-11T01:15:57.139Z,95.27
2022-12-11T01:26:07.686Z,95.22
2022-12-11T01:36:12.465Z,95.11
2022-12-11T01:46:17.006Z,95.03
2022-12-11T01:56:20.323Z,95.26
2022-12-11T02:06:38.688Z,95.34
2022-12-11T02:16:56.122Z,95.53
2022-12-11T02:27:17.257Z,95.56
2022-12-11T02:37:25.307Z,95.52
2022-12-11T02:47:32.327Z,95.34
2022-12-11T02:57:51.704Z,95.36
2022-12-11T03:07:54.809Z,95.42
2022-12-11T03:18:06.020Z,95.40
2022-12-11T03:28:12.984Z,95.60
2022-12-11T03:38:23.791Z,95.53
2022-12-11T03:48:31.483Z,95.56
2022-12-11T03:58:36.183Z,95.57
2022-12-11T04:08:39.198Z,95.53
2022-12-11T04:19:02.184Z,95.44
2022-12-11T04:29:05.223Z,95.49
2022-12-11T04:39:09.717Z,95.44
2022-12-11T04:49:12.991Z,95.49
2022-12-11T04:59:17.785Z,95.49
2022-12-11T05:09:21.692Z,95.53
2022-12-11T05:19:41.103Z,95.57
2022-12-11T05:29:44.684Z,95.59
2022-12-11T05:39:49.681Z,95.65
2022-12-11T05:49:53.241Z,95.70
2022-12-11T05:59:58.124Z,95.71
2022-12-11T06:10:04.069Z,95.77
2022-12-11T06:20:13.896Z,95.73
2022-12-11T06:30:17.396Z,95.69
2022-12-11T06:40:22.155Z,95.64
2022-12-11T06:50:25.527Z,95.55
2022-12-11T07:00:29.988Z,95.28
2022-12-11T07:10:33.366Z,95.27
2022-12-11T07:20:37.782Z,95.20
2022-12-11T07:30:40.651Z,95.09
2022-12-11T07:40:45.173Z,95.05
2022-12-11T07:50:48.043Z,94.77
2022-12-11T08:00:52.412Z,94.48
2022-12-11T08:10:57.163Z,94.13
2022-12-11T08:21:18.523Z,93.88
2022-12-11T08:31:23.567Z,93.56
2022-12-11T08:41:32.144Z,93.30
2022-12-11T08:51:35.361Z,93.47
2022-12-11T09:01:46.146Z,93.23
2022-12-11T09:11:54.068Z,93.30
2022-12-11T09:22:00.387Z,93.19
2022-12-11T09:32:13.195Z,93.33
2022-12-11T09:42:27.588Z,93.09
2022-12-11T09:52:36.182Z,93.40
2022-12-11T10:02:50.217Z,93.57
2022-12-11T10:13:15.139Z,93.53
2022-12-11T10:23:22.625Z,93.85
2022-12-11T10:33:35.307Z,94.03
2022-12-11T10:43:42.778Z,94.25
2022-12-11T10:53:51.502Z,94.41
2022-12-11T11:03:59.534Z,94.57
2022-12-11T11:14:13.836Z,94.72
2022-12-11T11:24:28.034Z,94.87
2022-12-11T11:34:31.351Z,95.10
2022-12-11T11:44:40.887Z,95.46
2022-12-11T11:54:53.623Z,95.69
2022-12-11T12:04:58.366Z,95.92
2022-12-11T12:15:18.984Z,96.16
2022-12-11T12:25:30.368Z,96.48
2022-12-11T12:35:37.515Z,96.64
2022-12-11T12:45:51.807Z,96.69
2022-12-11T12:55:56.017Z,96.82
2022-12-11T13:06:03.194Z,96.90
2022-12-11T13:16:09.431Z,96.97
2022-12-11T13:26:29.171Z,97.11
2022-12-11T13:36:34.335Z,97.14
2022-12-11T13:46:41.548Z,97.17
2022-12-11T13:56:55.330Z,97.15
2022-12-11T14:07:09.361Z,97.23
2022-12-11T14:17:38.460Z,97.33
2022-12-11T14:27:51.069Z,97.39
2022-12-11T14:37:55.460Z,97.38
2022-12-11T14:48:02.299Z,97.33
2022-12-11T14:58:15.483Z,97.37
2022-12-11T15:08:27.909Z,97.32
2022-12-11T15:18:34.683Z,97.21
2022-12-11T15:28:39.505Z,97.04
2022-12-11T15:38:44.552Z,96.96
2022-12-11T15:48:50.470Z,97.03
2022-12-11T15:58:53.406Z,97.07
2022-12-11T16:08:57.922Z,96.98
2022-12-11T16:19:01.165Z,97.19
2022-12-11T16:29:05.952Z,97.22
2022-12-11T16:39:11.226Z,97.22
2022-12-11T16:49:15.715Z,97.22
2022-12-11T16:59:18.600Z,97.24
2022-12-11T17:09:22.917Z,97.21
2022-12-11T17:19:25.969Z,97.19
2022-12-11T17:29:30.316Z,97.29
2022-12-11T17:39:33.670Z,97.41
2022-12-11T17:49:38.062Z,97.54
2022-12-11T17:59:40.990Z,97.78
2022-12-11T18:09:45.689Z,97.94
2022-12-11T18:19:48.695Z,98.17
2022-12-11T18:29:58.197Z,98.07
2022-12-11T18:40:01.742Z,98.18
2022-12-11T18:50:40.712Z,98.18
2022-12-11T19:11:10.445Z,98.37
2022-12-11T19:21:16.769Z,98.50
2022-12-11T20:03:34.859Z,98.51
2022-12-11T20:24:21.807Z,98.02
2022-12-11T20:34:27.279Z,98.26
2022-12-11T20:55:51.128Z,98.51
2022-12-11T21:16:22.835Z,98.56
2022-12-11T21:26:29.120Z,97.77
2022-12-11T21:36:41.905Z,97.43
2022-12-11T21:57:26.239Z,97.29
2022-12-11T22:07:31.551Z,97.73
2022-12-11T22:17:34.684Z,97.99
2022-12-11T22:27:39.189Z,97.57
2022-12-11T22:37:42.858Z,97.34
2022-12-11T22:47:47.763Z,97.17
2022-12-11T22:57:50.896Z,96.95
2022-12-11T23:18:43.262Z,97.16
2022-12-11T23:28:46.818Z,97.83
2022-12-11T23:38:54.743Z,97.99
2022-12-11T23:48:58.556Z,97.75
2022-12-11T23:59:03.256Z,97.95
